Time;durP1;ratioP1;P1;durP2;ratioP2;P2;SDS_P1;SDS_P2;PMS_P1;PMS_P2;Temp;Humidity;BMP_temperature;BMP_pressure;BME280_temperature;BME280_humidity;BME280_pressure;Samples;Min_cycle;Max_cycle;Signal;HPM_P1;HPM_P2
2022/04/25 00:00:06;;;;;;;10.27;5.80;;;;;;;;;;4233656;33;20124;-62
2022/04/25 00:02:32;;;;;;;8.63;5.78;;;;;;;;;;4231783;33;20101;-62
2022/04/25 00:34:22;;;;;;;8.38;6.65;;;;;;;;;;4215349;34;20625;-59
2022/04/25 00:36:48;;;;;;;9.38;7.45;;;;;;;;;;4219145;34;20118;-58
2022/04/25 00:39:14;;;;;;;11.73;6.87;;;;;;;;;;4208946;34;20550;-59
2022/04/25 00:41:40;;;;;;;10.23;6.70;;;;;;;;;;4205278;34;20201;-59
2022/04/25 00:44:06;;;;;;;10.07;7.35;;;;;;;;;;4205812;34;20125;-58
2022/04/25 00:46:35;;;;;;;10.52;7.32;;;;;;;;;;4219146;34;20127;-59
2022/04/25 00:49:01;;;;;;;8.60;7.18;;;;;;;;;;4219132;34;20122;-59
2022/04/25 00:51:27;;;;;;;9.75;6.90;;;;;;;;;;4212257;34;20114;-59
2022/04/25 00:53:53;;;;;;;8.93;6.87;;;;;;;;;;4205124;34;20128;-60
2022/04/25 00:56:19;;;;;;;10.52;6.85;;;;;;;;;;4205254;34;20177;-60
2022/04/25 00:58:46;;;;;;;16.23;7.60;;;;;;;;;;4203488;34;20125;-60
2022/04/25 01:01:14;;;;;;;12.95;7.45;;;;;;;;;;4201649;34;20462;-60
2022/04/25 01:03:40;;;;;;;8.45;6.78;;;;;;;;;;4191255;34;20126;-60
2022/04/25 01:06:06;;;;;;;8.98;6.75;;;;;;;;;;4190010;34;20141;-60
2022/04/25 01:08:34;;;;;;;11.70;8.23;;;;;;;;;;4204220;34;20140;-61
2022/04/25 01:11:04;;;;;;;8.68;6.60;;;;;;;;;;4206244;34;20192;-61
2022/04/25 01:13:31;;;;;;;10.45;6.97;;;;;;;;;;4218733;34;20109;-61
2022/04/25 01:15:57;;;;;;;9.23;6.90;;;;;;;;;;4206008;34;20136;-61
2022/04/25 01:18:23;;;;;;;12.40;6.97;;;;;;;;;;4205669;34;20129;-60
2022/04/25 01:20:52;;;;;;;12.85;7.32;;;;;;;;;;4205053;34;20114;-60
2022/04/25 01:28:51;;;;;;;10.82;7.18;;;;;;;;;;4204923;34;20148;-61
2022/04/25 01:31:17;;;;;;;15.90;6.97;;;;;;;;;;4203583;34;20106;-61
2022/04/25 01:33:44;;;;;;;9.27;7.10;;;;;;;;;;4204717;34;20134;-61
2022/04/25 01:36:11;;;;;;;13.18;9.00;;;;;;;;;;4192159;34;20105;-61
2022/04/25 01:38:37;;;;;;;11.32;6.68;;;;;;;;;;4191807;34;20121;-62
2022/04/25 01:41:03;;;;;;;15.18;6.82;;;;;;;;;;4204874;34;20126;-62
2022/04/25 01:43:29;;;;;;;10.55;7.35;;;;;;;;;;4204738;34;20117;-62
2022/04/25 01:45:55;;;;;;;10.52;7.25;;;;;;;;;;4205009;34;20638;-63
2022/04/25 01:48:21;;;;;;;14.35;7.12;;;;;;;;;;4204484;34;20114;-62
2022/04/25 01:50:49;;;;;;;14.50;7.10;;;;;;;;;;4204689;34;20113;-62
2022/04/25 01:53:15;;;;;;;11.32;6.68;;;;;;;;;;4204611;34;20126;-61
2022/04/25 01:55:42;;;;;;;14.93;7.40;;;;;;;;;;4204890;34;20117;-64
2022/04/25 01:58:08;;;;;;;10.07;6.40;;;;;;;;;;4204794;34;20094;-62
2022/04/25 02:00:34;;;;;;;12.35;7.50;;;;;;;;;;4204802;34;20173;-62
2022/04/25 02:03:00;;;;;;;8.38;6.68;;;;;;;;;;4202990;34;20221;-61
2022/04/25 02:05:26;;;;;;;12.40;6.95;;;;;;;;;;4204515;34;20120;-61
2022/04/25 02:07:52;;;;;;;13.60;7.65;;;;;;;;;;4206409;34;20105;-61
2022/04/25 02:10:18;;;;;;;12.77;7.60;;;;;;;;;;4218462;34;20112;-61
2022/04/25 02:12:44;;;;;;;18.83;9.15;;;;;;;;;;4205063;34;20116;-61
2022/04/25 02:15:13;;;;;;;12.98;7.60;;;;;;;;;;4218293;34;20549;-60
2022/04/25 02:17:44;;;;;;;10.02;7.30;;;;;;;;;;4217692;34;20221;-61
2022/04/25 02:20:11;;;;;;;11.63;7.70;;;;;;;;;;4218230;34;20502;-61
2022/04/25 02:22:37;;;;;;;12.27;7.85;;;;;;;;;;4205578;34;20521;-61
2022/04/25 02:25:03;;;;;;;15.73;7.93;;;;;;;;;;4218250;34;20121;-61
2022/04/25 02:27:29;;;;;;;11.55;6.93;;;;;;;;;;4218162;34;20493;-61
2022/04/25 02:29:58;;;;;;;14.30;7.05;;;;;;;;;;4205178;34;20109;-61
2022/04/25 02:32:24;;;;;;;11.20;6.75;;;;;;;;;;4217866;34;20228;-61
2022/04/25 02:34:50;;;;;;;10.85;7.15;;;;;;;;;;4217167;34;20120;-61
2022/04/25 02:37:17;;;;;;;12.68;7.30;;;;;;;;;;4204213;34;20209;-60
2022/04/25 02:39:43;;;;;;;11.15;7.47;;;;;;;;;;4204410;34;20117;-61
2022/04/25 02:42:09;;;;;;;17.08;7.20;;;;;;;;;;4202597;34;20148;-61
2022/04/25 02:44:34;;;;;;;9.02;6.85;;;;;;;;;;4192223;34;20106;-61
2022/04/25 02:47:00;;;;;;;11.68;7.53;;;;;;;;;;4194756;34;20273;-62
2022/04/25 02:49:26;;;;;;;11.75;6.97;;;;;;;;;;4202867;34;20106;-62
2022/04/25 02:51:52;;;;;;;10.32;6.72;;;;;;;;;;4204079;34;20125;-62
2022/04/25 02:54:18;;;;;;;10.50;7.40;;;;;;;;;;4203988;34;20493;-63
2022/04/25 02:56:44;;;;;;;14.80;9.35;;;;;;;;;;4201576;34;20284;-63
2022/04/25 02:59:10;;;;;;;14.18;7.05;;;;;;;;;;4190186;34;20094;-62
2022/04/25 03:01:36;;;;;;;12.57;7.53;;;;;;;;;;4190246;34;20638;-61
2022/04/25 03:04:02;;;;;;;12.95;8.32;;;;;;;;;;4189954;34;20128;-62
2022/04/25 03:06:28;;;;;;;14.77;8.18;;;;;;;;;;4190510;34;20131;-61
2022/04/25 03:08:54;;;;;;;9.75;7.37;;;;;;;;;;4188733;34;20174;-62
2022/04/25 03:11:20;;;;;;;10.50;8.07;;;;;;;;;;4190083;34;20111;-62
2022/04/25 03:13:46;;;;;;;17.87;7.85;;;;;;;;;;4177025;34;20114;-62
2022/04/25 03:16:12;;;;;;;15.15;8.75;;;;;;;;;;4188664;34;20201;-62
2022/04/25 03:18:38;;;;;;;11.43;7.78;;;;;;;;;;4190023;34;20118;-62
2022/04/25 03:21:06;;;;;;;12.48;7.85;;;;;;;;;;4190049;34;20201;-63
2022/04/25 03:23:32;;;;;;;12.60;7.78;;;;;;;;;;4186530;34;20204;-59
2022/04/25 03:25:58;;;;;;;14.57;7.90;;;;;;;;;;4202092;34;20225;-60
2022/04/25 03:28:23;;;;;;;17.58;7.75;;;;;;;;;;4197720;34;20443;-60
2022/04/25 03:30:49;;;;;;;10.05;7.65;;;;;;;;;;4199249;34;20224;-60
2022/04/25 03:33:16;;;;;;;16.42;7.57;;;;;;;;;;4202055;34;20560;-62
2022/04/25 03:35:46;;;;;;;13.20;7.25;;;;;;;;;;4205424;34;20522;-61
2022/04/25 03:38:13;;;;;;;16.73;7.90;;;;;;;;;;4205265;34;20140;-62
2022/04/25 03:40:40;;;;;;;20.85;7.82;;;;;;;;;;4205558;34;20112;-62
2022/04/25 03:43:09;;;;;;;23.27;8.98;;;;;;;;;;4205509;34;20117;-61
2022/04/25 03:45:35;;;;;;;13.77;7.57;;;;;;;;;;4205439;34;20118;-62
2022/04/25 03:48:02;;;;;;;23.38;8.10;;;;;;;;;;4205330;34;20113;-61
2022/04/25 03:50:28;;;;;;;10.55;6.93;;;;;;;;;;4205258;34;20102;-60
2022/04/25 03:52:54;;;;;;;13.05;7.28;;;;;;;;;;4204693;34;20113;-61
2022/04/25 03:58:05;;;;;;;13.98;8.23;;;;;;;;;;4205322;34;20129;-60
2022/04/25 04:00:32;;;;;;;27.15;8.93;;;;;;;;;;4205252;34;20536;-61
2022/04/25 04:02:59;;;;;;;16.25;7.80;;;;;;;;;;4203519;34;20185;-62
2022/04/25 04:05:26;;;;;;;11.10;7.82;;;;;;;;;;4205276;34;20523;-62
2022/04/25 04:07:52;;;;;;;10.57;7.25;;;;;;;;;;4203930;34;20114;-67
2022/04/25 04:10:21;;;;;;;28.33;9.30;;;;;;;;;;4190154;34;20098;-63
2022/04/25 04:12:47;;;;;;;18.20;8.77;;;;;;;;;;4205148;34;20096;-63
2022/04/25 04:15:14;;;;;;;8.40;6.90;;;;;;;;;;4205211;34;20098;-63
2022/04/25 04:17:41;;;;;;;11.12;7.35;;;;;;;;;;4191246;34;20548;-63
2022/04/25 04:20:08;;;;;;;11.77;7.93;;;;;;;;;;4191914;34;20201;-62
2022/04/25 04:22:36;;;;;;;21.08;8.13;;;;;;;;;;4192589;34;20117;-62
2022/04/25 04:25:05;;;;;;;21.17;8.32;;;;;;;;;;4197424;34;20506;-62
2022/04/25 04:27:31;;;;;;;12.75;7.15;;;;;;;;;;4178674;34;20154;-63
2022/04/25 04:29:58;;;;;;;11.52;7.37;;;;;;;;;;4179718;34;20126;-60
2022/04/25 04:32:29;;;;;;;12.93;7.70;;;;;;;;;;4203951;34;20510;-62
2022/04/25 04:34:56;;;;;;;16.23;7.07;;;;;;;;;;4205126;34;20116;-63
2022/04/25 04:37:24;;;;;;;15.77;7.70;;;;;;;;;;4192475;34;20102;-61
2022/04/25 04:39:50;;;;;;;16.12;6.90;;;;;;;;;;4203576;34;20141;-59
2022/04/25 04:42:16;;;;;;;17.80;7.30;;;;;;;;;;4205207;34;20101;-61
2022/04/25 04:44:43;;;;;;;20.35;6.45;;;;;;;;;;4205106;34;20141;-61
2022/04/25 04:47:10;;;;;;;12.57;7.22;;;;;;;;;;4205040;34;20236;-61
2022/04/25 04:49:35;;;;;;;10.32;6.60;;;;;;;;;;4205103;34;20225;-62
2022/04/25 04:52:02;;;;;;;12.98;7.22;;;;;;;;;;4205221;34;20104;-61
2022/04/25 04:54:28;;;;;;;7.45;6.20;;;;;;;;;;4205117;34;20118;-62
2022/04/25 04:56:54;;;;;;;14.45;6.68;;;;;;;;;;4204917;34;20179;-61
2022/04/25 04:59:20;;;;;;;11.30;6.65;;;;;;;;;;4205094;34;20110;-61
2022/04/25 05:01:46;;;;;;;13.65;6.35;;;;;;;;;;4205192;34;20498;-61
2022/04/25 05:04:12;;;;;;;9.20;6.40;;;;;;;;;;4204974;34;20225;-60
2022/04/25 05:06:38;;;;;;;8.63;5.72;;;;;;;;;;4204998;34;20104;-61
2022/04/25 05:09:04;;;;;;;14.15;6.20;;;;;;;;;;4205261;34;20539;-61
2022/04/25 05:11:30;;;;;;;10.57;5.72;;;;;;;;;;4204923;34;20120;-61
2022/04/25 05:13:56;;;;;;;17.30;5.62;;;;;;;;;;4204597;34;20601;-62
2022/04/25 05:16:22;;;;;;;8.77;5.60;;;;;;;;;;4204975;34;20189;-61
2022/04/25 05:18:48;;;;;;;9.45;5.40;;;;;;;;;;4203813;34;20620;-68
2022/04/25 05:21:14;;;;;;;11.02;5.90;;;;;;;;;;4203513;34;20109;-61
2022/04/25 05:23:42;;;;;;;7.50;5.30;;;;;;;;;;4205197;34;20204;-61
2022/04/25 05:26:08;;;;;;;11.90;5.72;;;;;;;;;;4203461;34;20093;-62
2022/04/25 05:28:34;;;;;;;10.35;5.47;;;;;;;;;;4204949;34;20502;-62
2022/04/25 05:31:00;;;;;;;11.10;5.22;;;;;;;;;;4204819;34;20109;-61
2022/04/25 05:33:26;;;;;;;14.73;5.15;;;;;;;;;;4204714;34;20526;-62
2022/04/25 05:35:52;;;;;;;9.05;4.93;;;;;;;;;;4204707;34;20090;-61
2022/04/25 05:38:18;;;;;;;6.80;3.75;;;;;;;;;;4204802;34;20292;-62
2022/04/25 05:40:44;;;;;;;4.55;3.33;;;;;;;;;;4204847;34;20117;-62
2022/04/25 05:43:11;;;;;;;8.18;3.40;;;;;;;;;;4204913;34;20140;-61
2022/04/25 05:45:37;;;;;;;8.20;3.92;;;;;;;;;;4203250;34;20519;-60
2022/04/25 05:51:58;;;;;;;15.05;4.35;;;;;;;;;;4204597;34;20126;-61
2022/04/25 05:53:36;;;;;;;6.95;4.37;;;;;;;;;;4202829;34;20117;-60
2022/04/25 05:56:02;;;;;;;10.60;4.57;;;;;;;;;;4204442;34;20206;-59
2022/04/25 05:58:28;;;;;;;8.90;4.95;;;;;;;;;;4204633;34;20120;-59
2022/04/25 06:00:54;;;;;;;7.75;4.25;;;;;;;;;;4204687;34;20106;-58
2022/04/25 06:03:20;;;;;;;9.00;4.25;;;;;;;;;;4204650;34;20109;-61
2022/04/25 06:05:46;;;;;;;8.43;4.95;;;;;;;;;;4204547;34;20202;-60
2022/04/25 06:08:13;;;;;;;6.97;5.28;;;;;;;;;;4191623;34;20118;-61
2022/04/25 06:10:40;;;;;;;10.45;5.12;;;;;;;;;;4204468;34;20114;-61
2022/04/25 06:13:07;;;;;;;9.45;5.25;;;;;;;;;;4204346;34;20186;-61
2022/04/25 06:15:33;;;;;;;9.88;5.90;;;;;;;;;;4203212;34;20090;-60
2022/04/25 06:17:59;;;;;;;7.37;5.45;;;;;;;;;;4204328;34;20113;-60
2022/04/25 06:20:30;;;;;;;13.70;5.35;;;;;;;;;;4204275;34;20102;-60
2022/04/25 06:22:58;;;;;;;12.35;5.37;;;;;;;;;;4204353;34;20125;-60
2022/04/25 06:25:25;;;;;;;10.43;5.55;;;;;;;;;;4204240;34;20613;-60
2022/04/25 06:27:51;;;;;;;12.60;6.47;;;;;;;;;;4191294;34;20136;-60
2022/04/25 06:30:17;;;;;;;14.05;5.62;;;;;;;;;;4204170;34;20556;-60
2022/04/25 06:32:44;;;;;;;23.48;7.35;;;;;;;;;;4204042;34;20110;-59
2022/04/25 06:35:11;;;;;;;8.68;5.12;;;;;;;;;;4204163;34;20175;-60
2022/04/25 06:37:37;;;;;;;8.50;5.03;;;;;;;;;;4204102;34;20109;-58
2022/04/25 06:40:04;;;;;;;8.70;5.22;;;;;;;;;;4204415;34;20185;-58
2022/04/25 06:42:30;;;;;;;7.85;5.93;;;;;;;;;;4203934;34;20117;-58
2022/04/25 06:44:56;;;;;;;13.38;6.55;;;;;;;;;;4203973;34;20132;-58
2022/04/25 06:47:22;;;;;;;9.85;4.93;;;;;;;;;;4204032;34;20094;-57
2022/04/25 06:49:48;;;;;;;18.37;5.25;;;;;;;;;;4204007;34;20128;-58
2022/04/25 06:52:15;;;;;;;9.65;5.62;;;;;;;;;;4203881;34;20118;-58
2022/04/25 06:54:41;;;;;;;8.13;5.03;;;;;;;;;;4203875;34;20522;-58
2022/04/25 06:57:07;;;;;;;14.45;7.12;;;;;;;;;;4203951;34;20419;-58
2022/04/25 06:59:33;;;;;;;9.57;5.37;;;;;;;;;;4190981;34;20192;-58
2022/04/25 07:02:00;;;;;;;11.25;5.78;;;;;;;;;;4203900;34;20169;-59
2022/04/25 07:04:26;;;;;;;14.02;5.93;;;;;;;;;;4205114;34;20091;-60
2022/04/25 07:06:52;;;;;;;7.53;5.47;;;;;;;;;;4192973;34;20423;-60
2022/04/25 07:09:18;;;;;;;12.00;5.80;;;;;;;;;;4205952;34;20227;-58
2022/04/25 07:11:45;;;;;;;13.25;6.12;;;;;;;;;;4205900;34;20114;-57
2022/04/25 07:14:15;;;;;;;17.37;5.57;;;;;;;;;;4206037;34;20114;-57
2022/04/25 07:16:45;;;;;;;6.40;4.65;;;;;;;;;;4205949;34;20094;-58
2022/04/25 07:19:13;;;;;;;14.82;6.03;;;;;;;;;;4205978;34;20476;-58
2022/04/25 07:29:53;;;;;;;12.13;3.78;;;;;;;;;;4205793;34;20452;-61
2022/04/25 07:32:20;;;;;;;7.07;4.95;;;;;;;;;;4205628;34;20197;-63
2022/04/25 07:34:47;;;;;;;10.77;4.20;;;;;;;;;;4192159;34;20124;-62
2022/04/25 07:37:15;;;;;;;9.18;4.93;;;;;;;;;;4205725;34;20102;-63
2022/04/25 07:39:42;;;;;;;17.77;5.32;;;;;;;;;;4205791;34;20586;-66
2022/04/25 07:42:08;;;;;;;19.80;7.85;;;;;;;;;;4205640;34;20124;-63
2022/04/25 07:44:34;;;;;;;20.98;5.68;;;;;;;;;;4205723;34;20132;-64
2022/04/25 07:47:00;;;;;;;16.85;4.90;;;;;;;;;;4192789;34;20546;-63
2022/04/25 07:49:27;;;;;;;12.32;4.55;;;;;;;;;;4205897;34;20102;-64
2022/04/25 07:51:55;;;;;;;14.05;4.62;;;;;;;;;;4205648;34;20117;-65
2022/04/25 07:54:22;;;;;;;5.78;4.53;;;;;;;;;;4204176;34;20208;-65
2022/04/25 07:56:48;;;;;;;9.50;4.90;;;;;;;;;;4205636;34;20625;-63
2022/04/25 07:59:15;;;;;;;8.18;4.28;;;;;;;;;;4205600;34;20138;-63
2022/04/25 08:01:41;;;;;;;10.40;5.30;;;;;;;;;;4205641;34;20636;-61
2022/04/25 08:04:08;;;;;;;8.98;4.90;;;;;;;;;;4205818;34;20141;-62
2022/04/25 08:06:34;;;;;;;13.73;6.62;;;;;;;;;;4205616;34;20621;-62
2022/04/25 08:09:02;;;;;;;8.20;5.10;;;;;;;;;;4205607;34;20113;-62
2022/04/25 08:11:28;;;;;;;8.13;5.03;;;;;;;;;;4205412;34;20102;-61
2022/04/25 08:19:24;;;;;;;13.38;5.28;;;;;;;;;;4205405;34;20110;-61
2022/04/25 08:21:50;;;;;;;12.82;5.55;;;;;;;;;;4205433;34;20091;-61
2022/04/25 08:24:17;;;;;;;10.27;5.32;;;;;;;;;;4205295;34;20138;-62
2022/04/25 08:26:43;;;;;;;18.27;5.43;;;;;;;;;;4205340;34;20133;-61
2022/04/25 08:29:09;;;;;;;9.05;5.30;;;;;;;;;;4205132;34;20131;-62
2022/04/25 08:31:37;;;;;;;6.78;4.68;;;;;;;;;;4203877;34;20578;-63
2022/04/25 08:34:04;;;;;;;6.40;4.75;;;;;;;;;;4205246;34;20113;-62
2022/04/25 08:36:31;;;;;;;8.00;4.47;;;;;;;;;;4205176;34;20180;-62
2022/04/25 08:38:58;;;;;;;11.40;5.43;;;;;;;;;;4205342;34;20208;-62
2022/04/25 08:41:29;;;;;;;6.12;4.37;;;;;;;;;;4205108;34;20110;-61
2022/04/25 08:43:55;;;;;;;8.50;4.60;;;;;;;;;;4205351;34;20102;-62
2022/04/25 08:46:22;;;;;;;10.13;5.32;;;;;;;;;;4205232;34;20173;-63
2022/04/25 08:48:49;;;;;;;10.52;4.15;;;;;;;;;;4205244;34;20133;-61
2022/04/25 08:51:15;;;;;;;8.70;4.25;;;;;;;;;;4205207;34;20109;-61
2022/04/25 08:53:45;;;;;;;9.75;4.35;;;;;;;;;;4204989;34;20474;-61
2022/04/25 08:56:12;;;;;;;4.95;4.07;;;;;;;;;;4203720;34;20212;-61
2022/04/25 08:58:46;;;;;;;7.87;4.15;;;;;;;;;;4205196;34;20443;-62
2022/04/25 09:01:12;;;;;;;9.85;4.28;;;;;;;;;;4205064;34;20113;-61
2022/04/25 09:03:38;;;;;;;6.97;3.83;;;;;;;;;;4192267;34;20458;-60
2022/04/25 09:06:08;;;;;;;9.13;4.35;;;;;;;;;;4204976;34;20098;-60
2022/04/25 09:08:35;;;;;;;4.85;3.33;;;;;;;;;;4204830;34;20109;-61
2022/04/25 09:13:46;;;;;;;8.43;3.10;;;;;;;;;;4205017;34;20520;-62
2022/04/25 09:16:13;;;;;;;14.05;3.90;;;;;;;;;;4204874;34;20113;-61
2022/04/25 09:18:39;;;;;;;10.30;3.65;;;;;;;;;;4204730;34;20105;-61
2022/04/25 09:21:06;;;;;;;7.47;2.92;;;;;;;;;;4191983;34;20106;-61
2022/04/25 09:23:32;;;;;;;7.50;3.45;;;;;;;;;;4204880;34;20109;-62
2022/04/25 09:26:15;;;;;;;5.47;3.25;;;;;;;;;;4205033;34;20222;-61
2022/04/25 09:28:53;;;;;;;8.55;2.70;;;;;;;;;;4204884;34;20125;-62
2022/04/25 09:31:20;;;;;;;5.60;3.50;;;;;;;;;;4204947;34;20483;-62
2022/04/25 09:33:46;;;;;;;7.07;3.08;;;;;;;;;;4204740;34;20089;-62
2022/04/25 09:36:12;;;;;;;7.07;3.37;;;;;;;;;;4189562;34;20110;-61
2022/04/25 09:38:40;;;;;;;19.35;4.05;;;;;;;;;;4191064;34;20126;-62
2022/04/25 09:41:08;;;;;;;10.32;3.80;;;;;;;;;;4178488;34;20118;-62
2022/04/25 09:43:36;;;;;;;6.32;3.50;;;;;;;;;;4190916;34;20112;-61
2022/04/25 09:46:04;;;;;;;8.57;4.07;;;;;;;;;;4190743;34;20306;-60
2022/04/25 09:48:30;;;;;;;6.10;3.37;;;;;;;;;;4190924;34;20205;-61
2022/04/25 09:50:59;;;;;;;7.15;3.10;;;;;;;;;;4178026;34;20113;-62
2022/04/25 09:53:41;;;;;;;8.88;3.72;;;;;;;;;;4190848;34;20098;-61
2022/04/25 09:56:23;;;;;;;8.20;3.45;;;;;;;;;;4189430;34;20258;-61
2022/04/25 09:59:08;;;;;;;5.25;3.17;;;;;;;;;;4190919;34;20202;-62
2022/04/25 10:01:37;;;;;;;11.35;3.97;;;;;;;;;;4190973;34;20098;-61
2022/04/25 10:04:06;;;;;;;9.63;4.40;;;;;;;;;;4189251;34;20118;-60
2022/04/25 10:06:33;;;;;;;3.70;3.10;;;;;;;;;;4190676;34;20204;-61
2022/04/25 10:09:01;;;;;;;3.92;3.20;;;;;;;;;;4190668;34;20113;-62
2022/04/25 10:11:34;;;;;;;7.25;3.17;;;;;;;;;;4190656;34;20106;-61
2022/04/25 10:14:01;;;;;;;5.15;3.00;;;;;;;;;;4189367;34;20097;-61
2022/04/25 10:16:28;;;;;;;7.55;3.20;;;;;;;;;;4189114;34;20454;-61
2022/04/25 10:18:54;;;;;;;6.53;2.87;;;;;;;;;;4190506;34;20117;-61
2022/04/25 10:21:22;;;;;;;6.25;3.58;;;;;;;;;;4177972;34;20106;-61
2022/04/25 10:23:48;;;;;;;6.30;3.28;;;;;;;;;;4189207;34;20670;-59
2022/04/25 10:26:14;;;;;;;7.32;4.12;;;;;;;;;;4188792;34;20134;-60
2022/04/25 10:28:43;;;;;;;7.87;3.37;;;;;;;;;;4190399;34;20173;-62
2022/04/25 10:31:16;;;;;;;8.40;3.00;;;;;;;;;;4188812;34;20121;-62
2022/04/25 10:33:53;;;;;;;10.68;3.95;;;;;;;;;;4177611;34;20093;-61
2022/04/25 10:36:49;;;;;;;7.72;3.58;;;;;;;;;;4184857;34;20172;-61
2022/04/25 10:39:19;;;;;;;7.12;3.37;;;;;;;;;;4189402;34;20458;-61
2022/04/25 10:44:45;;;;;;;5.37;3.08;;;;;;;;;;4189107;34;20116;-61
2022/04/25 10:47:12;;;;;;;7.97;3.20;;;;;;;;;;4188998;34;20138;-62
2022/04/25 10:49:43;;;;;;;12.02;3.50;;;;;;;;;;4190167;34;20110;-61
2022/04/25 10:52:34;;;;;;;2.83;2.55;;;;;;;;;;4190174;34;20176;-59
2022/04/25 10:55:23;;;;;;;4.12;2.80;;;;;;;;;;4190140;34;20126;-60
2022/04/25 10:58:04;;;;;;;5.15;3.00;;;;;;;;;;4190128;34;20125;-62
2022/04/25 11:00:44;;;;;;;3.55;2.90;;;;;;;;;;4190317;34;20110;-62
2022/04/25 11:03:17;;;;;;;7.00;3.65;;;;;;;;;;4190181;34;20106;-60
2022/04/25 11:05:52;;;;;;;9.25;3.87;;;;;;;;;;4188499;34;20138;-61
2022/04/25 11:08:21;;;;;;;7.22;4.30;;;;;;;;;;4188623;34;20137;-62
2022/04/25 11:11:01;;;;;;;4.85;3.30;;;;;;;;;;4189955;34;20090;-61
2022/04/25 11:13:36;;;;;;;9.98;3.42;;;;;;;;;;4190071;34;20106;-58
2022/04/25 11:16:19;;;;;;;6.10;2.80;;;;;;;;;;4190079;34;20114;-60
2022/04/25 11:18:45;;;;;;;10.18;3.70;;;;;;;;;;4190015;34;20632;-60
2022/04/25 11:21:29;;;;;;;6.18;3.33;;;;;;;;;;4188063;34;20215;-60
2022/04/25 11:23:56;;;;;;;5.95;3.33;;;;;;;;;;4189701;34;20117;-59
2022/04/25 11:26:22;;;;;;;6.00;3.17;;;;;;;;;;4189767;34;20193;-59
2022/04/25 11:28:54;;;;;;;8.10;3.30;;;;;;;;;;4189898;34;20118;-59
2022/04/25 11:31:25;;;;;;;10.55;3.40;;;;;;;;;;4189748;34;20185;-60
2022/04/25 11:33:53;;;;;;;7.95;5.07;;;;;;;;;;4189507;34;20545;-61
2022/04/25 11:36:22;;;;;;;6.47;3.28;;;;;;;;;;4199385;34;20183;-61
2022/04/25 11:41:37;;;;;;;6.57;3.30;;;;;;;;;;4203585;34;20633;-60
2022/04/25 11:44:04;;;;;;;7.22;3.00;;;;;;;;;;4203827;34;20208;-61
2022/04/25 11:46:31;;;;;;;7.95;3.55;;;;;;;;;;4190440;34;20459;-60
2022/04/25 11:48:57;;;;;;;8.07;3.20;;;;;;;;;;4202061;34;20093;-61
2022/04/25 11:51:24;;;;;;;7.05;4.00;;;;;;;;;;4204924;34;20106;-61
2022/04/25 11:53:54;;;;;;;16.77;3.62;;;;;;;;;;4205575;34;20114;-60
2022/04/25 11:56:24;;;;;;;16.08;5.62;;;;;;;;;;4205614;34;20124;-63
2022/04/25 11:58:50;;;;;;;17.12;3.95;;;;;;;;;;4205441;34;20561;-61
2022/04/25 12:01:32;;;;;;;32.88;4.95;;;;;;;;;;4205569;34;20205;-59
2022/04/25 12:04:22;;;;;;;9.57;3.55;;;;;;;;;;4205648;34;20114;-60
2022/04/25 12:06:49;;;;;;;9.75;3.78;;;;;;;;;;4205560;34;20110;-61
2022/04/25 12:17:45;;;;;;;8.30;2.60;;;;;;;;;;4205448;34;20165;-61
2022/04/25 12:20:13;;;;;;;7.22;3.10;;;;;;;;;;4205567;34;20206;-61
2022/04/25 12:22:40;;;;;;;6.25;3.50;;;;;;;;;;4205606;34;20573;-62
2022/04/25 12:25:14;;;;;;;5.55;3.25;;;;;;;;;;4192679;34;20172;-65
2022/04/25 12:27:41;;;;;;;10.43;4.60;;;;;;;;;;4205598;34;20134;-59
2022/04/25 12:30:08;;;;;;;9.60;3.53;;;;;;;;;;4205366;34;20120;-73
2022/04/25 12:32:34;;;;;;;6.12;2.97;;;;;;;;;;4192506;34;20103;-62
2022/04/25 12:35:00;;;;;;;7.60;2.75;;;;;;;;;;4192165;34;20100;-60
2022/04/25 12:37:26;;;;;;;2.75;2.55;;;;;;;;;;4192600;34;20128;-59
2022/04/25 12:40:05;;;;;;;7.70;3.72;;;;;;;;;;4205203;34;20513;-60
2022/04/25 12:42:46;;;;;;;5.00;2.53;;;;;;;;;;4205165;34;20184;-61
2022/04/25 12:45:14;;;;;;;8.32;2.67;;;;;;;;;;4205205;34;20096;-60
2022/04/25 12:47:53;;;;;;;5.20;2.33;;;;;;;;;;4205090;34;20121;-63
2022/04/25 12:50:40;;;;;;;4.55;2.60;;;;;;;;;;4205165;34;20133;-61
2022/04/25 12:53:07;;;;;;;6.07;2.75;;;;;;;;;;4205174;34;20130;-66
2022/04/25 12:55:47;;;;;;;7.62;2.72;;;;;;;;;;4205058;34;20090;-61
2022/04/25 12:58:13;;;;;;;5.93;2.22;;;;;;;;;;4205319;34;20182;-61
2022/04/25 13:00:41;;;;;;;5.68;2.12;;;;;;;;;;4204882;34;20498;-61
2022/04/25 13:03:08;;;;;;;5.95;2.10;;;;;;;;;;4205191;34;20125;-61
2022/04/25 13:05:34;;;;;;;3.00;1.90;;;;;;;;;;4205111;34;20122;-61
2022/04/25 13:08:01;;;;;;;6.28;2.25;;;;;;;;;;4205228;34;20190;-61
2022/04/25 13:10:27;;;;;;;2.70;2.20;;;;;;;;;;4204893;34;20514;-60
2022/04/25 13:12:54;;;;;;;5.75;2.30;;;;;;;;;;4204887;34;20093;-61
2022/04/25 13:15:28;;;;;;;9.52;3.20;;;;;;;;;;4204911;34;20122;-61
2022/04/25 13:17:54;;;;;;;8.13;2.00;;;;;;;;;;4204911;34;20158;-60
2022/04/25 13:20:21;;;;;;;8.25;2.20;;;;;;;;;;4205097;34;20217;-62
2022/04/25 13:22:49;;;;;;;2.55;2.10;;;;;;;;;;4204899;34;20129;-62
2022/04/25 13:25:16;;;;;;;68.75;7.65;;;;;;;;;;4204711;34;20435;-60
2022/04/25 13:27:42;;;;;;;4.43;2.33;;;;;;;;;;4204959;34;20117;-60
2022/04/25 13:30:12;;;;;;;3.12;2.20;;;;;;;;;;4204815;34;20102;-61
2022/04/25 13:32:38;;;;;;;8.70;2.10;;;;;;;;;;4204773;34;20093;-62
2022/04/25 13:35:05;;;;;;;4.40;2.30;;;;;;;;;;4204699;34;20523;-60
2022/04/25 13:37:31;;;;;;;6.55;2.60;;;;;;;;;;4205024;34;20117;-59
2022/04/25 13:39:58;;;;;;;8.15;2.20;;;;;;;;;;4191972;34;20467;-59
2022/04/25 13:42:26;;;;;;;5.78;2.50;;;;;;;;;;4204644;34;20097;-59
2022/04/25 13:44:52;;;;;;;9.68;3.20;;;;;;;;;;4204594;34;20125;-61
2022/04/25 13:47:19;;;;;;;4.50;2.87;;;;;;;;;;4203201;34;20112;-62
2022/04/25 13:49:45;;;;;;;9.23;2.28;;;;;;;;;;4204801;34;20213;-61
2022/04/25 13:52:11;;;;;;;4.68;2.30;;;;;;;;;;4204828;34;20110;-61
2022/04/25 13:54:40;;;;;;;8.90;2.53;;;;;;;;;;4204603;34;20118;-61
2022/04/25 13:57:06;;;;;;;7.45;2.62;;;;;;;;;;4204538;34;20145;-61
2022/04/25 13:59:32;;;;;;;6.93;2.97;;;;;;;;;;4204730;34;20109;-62
2022/04/25 14:03:05;;;;;;;3.58;2.10;;;;;;;;;;4202428;34;20105;-59
2022/04/25 14:04:44;;;;;;;6.35;2.45;;;;;;;;;;4204560;34;20097;-59
2022/04/25 14:07:10;;;;;;;5.90;2.47;;;;;;;;;;4204109;34;20133;-60
2022/04/25 14:09:36;;;;;;;8.57;2.33;;;;;;;;;;4204066;34;20506;-60
2022/04/25 14:12:02;;;;;;;2.33;2.00;;;;;;;;;;4203827;34;20137;-59
2022/04/25 14:14:28;;;;;;;4.05;2.30;;;;;;;;;;4190593;34;20146;-60
2022/04/25 14:16:54;;;;;;;2.75;2.12;;;;;;;;;;4203981;34;20434;-60
2022/04/25 14:19:20;;;;;;;5.93;2.60;;;;;;;;;;4204301;34;20189;-60
2022/04/25 14:21:46;;;;;;;21.75;3.40;;;;;;;;;;4203995;34;20173;-61
2022/04/25 14:24:12;;;;;;;3.78;2.80;;;;;;;;;;4204277;34;20129;-60
2022/04/25 14:26:38;;;;;;;10.40;2.05;;;;;;;;;;4203983;34;20136;-61
2022/04/25 14:29:04;;;;;;;5.72;2.37;;;;;;;;;;4204362;34;20140;-61
2022/04/25 14:31:30;;;;;;;8.10;3.10;;;;;;;;;;4204195;34;20118;-60
2022/04/25 14:33:56;;;;;;;7.10;2.80;;;;;;;;;;4203680;34;20583;-61
2022/04/25 14:36:22;;;;;;;6.60;2.37;;;;;;;;;;4203799;34;20168;-61
2022/04/25 14:38:48;;;;;;;5.57;2.08;;;;;;;;;;4204501;34;20114;-61
2022/04/25 14:41:14;;;;;;;11.98;2.50;;;;;;;;;;4203843;34;20110;-62
2022/04/25 14:43:40;;;;;;;6.97;2.60;;;;;;;;;;4204108;34;20546;-64
2022/04/25 14:46:06;;;;;;;11.40;2.70;;;;;;;;;;4203728;34;20144;-62
2022/04/25 14:48:33;;;;;;;8.10;2.00;;;;;;;;;;4202550;34;20478;-61
2022/04/25 14:56:35;;;;;;;12.48;3.30;;;;;;;;;;4203690;34;20125;-61
2022/04/25 14:59:02;;;;;;;6.43;2.60;;;;;;;;;;4202338;34;20205;-64
2022/04/25 15:01:28;;;;;;;6.65;3.58;;;;;;;;;;4191039;34;20125;-62
2022/04/25 15:03:54;;;;;;;3.72;2.20;;;;;;;;;;4190019;34;20126;-61
2022/04/25 15:06:26;;;;;;;8.27;2.60;;;;;;;;;;4174750;34;20509;-61
2022/04/25 15:08:51;;;;;;;5.95;2.60;;;;;;;;;;4188686;34;20197;-61
2022/04/25 15:11:17;;;;;;;3.03;2.47;;;;;;;;;;4188141;34;20132;-62
2022/04/25 15:13:43;;;;;;;6.57;2.60;;;;;;;;;;4189695;34;20130;-61
2022/04/25 15:16:11;;;;;;;4.93;2.85;;;;;;;;;;4200501;34;20137;-62
2022/04/25 15:18:37;;;;;;;7.05;2.50;;;;;;;;;;4203905;34;20576;-63
2022/04/25 15:21:03;;;;;;;13.05;2.95;;;;;;;;;;4202214;34;20102;-62
2022/04/25 15:23:29;;;;;;;10.10;3.12;;;;;;;;;;4202041;34;20179;-61
2022/04/25 15:25:55;;;;;;;12.85;3.28;;;;;;;;;;4205279;34;20594;-60
2022/04/25 15:28:21;;;;;;;5.87;4.07;;;;;;;;;;4204142;34;20126;-62
2022/04/25 15:30:47;;;;;;;8.35;4.97;;;;;;;;;;4192669;34;20105;-62
2022/04/25 15:33:13;;;;;;;26.83;8.30;;;;;;;;;;4205509;34;20174;-65
2022/04/25 15:35:42;;;;;;;20.00;8.25;;;;;;;;;;4203896;34;20108;-64
2022/04/25 15:38:08;;;;;;;20.85;8.73;;;;;;;;;;4192261;34;20126;-64
2022/04/25 15:40:39;;;;;;;17.60;7.22;;;;;;;;;;4204267;34;20105;-64
2022/04/25 15:43:07;;;;;;;11.25;3.22;;;;;;;;;;4203218;34;20197;-64
2022/04/25 15:45:37;;;;;;;7.72;3.10;;;;;;;;;;4203996;34;20106;-63
2022/04/25 15:48:04;;;;;;;19.20;4.47;;;;;;;;;;4204020;34;20120;-63
2022/04/25 15:50:30;;;;;;;7.43;3.00;;;;;;;;;;4205638;34;20117;-63
2022/04/25 15:52:56;;;;;;;17.50;4.45;;;;;;;;;;4205608;34;20130;-63
2022/04/25 15:58:07;;;;;;;23.23;8.18;;;;;;;;;;4205703;34;20125;-63